Time;durP1;ratioP1;P1;durP2;ratioP2;P2;SDS_P1;SDS_P2;PMS_P1;PMS_P2;Temp;Humidity;BMP_temperature;BMP_pressure;BME280_temperature;BME280_humidity;BME280_pressure;Samples;Min_cycle;Max_cycle;Signal;HPM_P1;HPM_P2
2021/11/16 00:02:12;;;;;;;45.70;28.98;;;12.90;64.60;;;;;;4845877;29;20045;-70
2021/11/16 00:04:38;;;;;;;48.50;31.08;;;12.90;64.80;;;;;;4846892;29;20098;-70
2021/11/16 00:07:05;;;;;;;48.08;29.85;;;12.80;64.00;;;;;;4862671;29;20132;-71
2021/11/16 00:09:32;;;;;;;44.08;27.55;;;12.80;64.70;;;;;;4862909;29;20068;-69
2021/11/16 00:11:58;;;;;;;45.75;29.50;;;12.90;65.00;;;;;;4863574;29;20049;-69
2021/11/16 00:14:24;;;;;;;45.22;28.48;;;12.90;64.90;;;;;;4862637;29;20060;-71
2021/11/16 00:16:49;;;;;;;43.65;27.70;;;13.00;65.80;;;;;;4862320;29;20053;-70
2021/11/16 00:19:16;;;;;;;46.35;28.95;;;13.20;65.10;;;;;;4862770;29;20457;-70
2021/11/16 00:21:43;;;;;;;46.63;27.35;;;13.10;64.50;;;;;;4862645;29;20049;-70
2021/11/16 00:24:13;;;;;;;44.28;28.92;;;13.10;64.80;;;;;;4862967;29;20373;-70
2021/11/16 00:26:40;;;;;;;50.72;29.83;;;13.10;64.70;;;;;;4862974;29;20439;-71
2021/11/16 00:29:06;;;;;;;47.10;29.00;;;13.00;64.60;;;;;;4846160;29;20050;-71
2021/11/16 00:31:32;;;;;;;47.03;29.60;;;13.00;64.80;;;;;;4862473;29;20057;-70
2021/11/16 00:34:03;;;;;;;44.83;28.52;;;13.00;65.10;;;;;;4862709;29;20057;-70
2021/11/16 00:36:29;;;;;;;47.97;30.88;;;13.00;64.90;;;;;;4862674;29;20059;-70
2021/11/16 00:38:56;;;;;;;46.20;28.77;;;12.90;65.20;;;;;;4862843;29;20057;-69
2021/11/16 00:41:22;;;;;;;43.95;29.50;;;12.90;65.00;;;;;;4862351;29;20080;-70
2021/11/16 00:43:49;;;;;;;42.83;28.75;;;12.90;65.50;;;;;;4862310;29;20068;-70
2021/11/16 00:46:15;;;;;;;45.63;29.92;;;12.90;65.60;;;;;;4862333;29;20067;-70
2021/11/16 00:48:42;;;;;;;43.10;29.40;;;12.90;65.20;;;;;;4862634;29;20405;-70
2021/11/16 00:51:09;;;;;;;45.17;29.30;;;12.90;65.60;;;;;;4863144;29;20455;-70
2021/11/16 00:53:37;;;;;;;45.22;29.23;;;12.90;65.50;;;;;;4862499;29;20468;-70
2021/11/16 00:56:05;;;;;;;44.95;28.95;;;12.80;65.40;;;;;;4862303;29;20085;-71
2021/11/16 00:58:31;;;;;;;43.97;29.10;;;12.90;66.00;;;;;;4862597;29;20481;-69
2021/11/16 01:00:57;;;;;;;43.95;28.75;;;12.90;66.00;;;;;;4862169;29;20131;-70
2021/11/16 01:03:24;;;;;;;39.22;27.13;;;12.90;65.80;;;;;;4846179;29;20085;-69
2021/11/16 01:05:51;;;;;;;42.65;27.40;;;12.90;65.90;;;;;;4862617;29;20056;-70
2021/11/16 01:08:18;;;;;;;41.80;28.98;;;12.90;66.00;;;;;;4846192;29;20061;-71
2021/11/16 01:10:44;;;;;;;41.00;27.63;;;13.00;66.10;;;;;;4848044;29;20439;-70
2021/11/16 01:13:15;;;;;;;45.13;28.63;;;12.90;66.00;;;;;;4865654;29;20049;-70
2021/11/16 01:15:43;;;;;;;42.85;28.15;;;12.90;66.10;;;;;;4849935;29;20074;-70
2021/11/16 01:18:10;;;;;;;44.45;28.23;;;12.90;66.20;;;;;;4865845;29;20046;-70
2021/11/16 01:20:38;;;;;;;44.55;29.05;;;12.90;66.10;;;;;;4865195;29;20462;-71
2021/11/16 01:23:07;;;;;;;43.63;28.17;;;12.90;66.00;;;;;;4849419;29;20054;-70
2021/11/16 01:25:37;;;;;;;43.15;28.85;;;13.00;66.30;;;;;;4849062;29;20076;-70
2021/11/16 01:28:10;;;;;;;42.58;28.70;;;12.90;66.20;;;;;;4833839;29;20136;-71
2021/11/16 01:30:36;;;;;;;;;;;12.90;65.70;;;;;;4865548;29;20045;-70
2021/11/16 01:33:05;;;;;;;42.13;28.50;;;12.90;65.20;;;;;;4849356;29;19935;-70
2021/11/16 01:35:34;;;;;;;48.90;30.98;;;12.90;66.10;;;;;;4865246;29;20442;-70
2021/11/16 01:37:59;;;;;;;42.92;28.77;;;12.80;65.90;;;;;;4865164;29;20116;-70
2021/11/16 01:40:25;;;;;;;44.05;29.50;;;12.80;66.20;;;;;;4849141;29;20060;-70
2021/11/16 01:42:52;;;;;;;42.55;28.10;;;12.80;65.80;;;;;;4848690;29;20053;-70
2021/11/16 01:45:20;;;;;;;45.15;28.17;;;12.70;65.90;;;;;;4865219;29;20053;-69
2021/11/16 01:47:47;;;;;;;43.63;29.98;;;12.80;65.70;;;;;;4864962;29;20076;-70
2021/11/16 01:50:15;;;;;;;45.65;30.15;;;12.70;65.80;;;;;;4865232;29;20053;-70
2021/11/16 01:52:41;;;;;;;46.40;29.77;;;12.70;65.70;;;;;;4865441;29;20072;-71
2021/11/16 01:55:10;;;;;;;42.78;28.92;;;12.70;65.80;;;;;;4865030;29;20053;-70
2021/11/16 01:57:36;;;;;;;42.22;29.50;;;12.70;65.60;;;;;;4848365;29;20068;-70
2021/11/16 02:00:06;;;;;;;44.35;29.25;;;12.70;66.00;;;;;;4848793;29;20058;-70
2021/11/16 02:02:32;;;;;;;46.28;29.98;;;12.70;65.80;;;;;;4864160;29;20381;-71
2021/11/16 02:04:58;;;;;;;46.53;30.20;;;12.60;65.80;;;;;;4864771;29;20045;-69
2021/11/16 02:07:23;;;;;;;45.45;29.58;;;12.70;66.00;;;;;;4864812;29;20060;-69
2021/11/16 02:09:49;;;;;;;44.65;29.08;;;12.60;65.60;;;;;;4848713;29;20427;-70
2021/11/16 02:12:15;;;;;;;45.00;29.15;;;12.70;65.70;;;;;;4864331;29;20049;-70
2021/11/16 02:14:41;;;;;;;44.92;30.67;;;12.60;65.30;;;;;;4848701;29;20054;-69
2021/11/16 02:17:07;;;;;;;43.92;28.75;;;12.60;65.60;;;;;;4864858;29;20049;-70
2021/11/16 02:19:33;;;;;;;46.15;29.30;;;12.60;65.70;;;;;;4864527;29;20453;-70
2021/11/16 02:21:58;;;;;;;44.55;29.15;;;12.60;65.60;;;;;;4864195;29;20060;-69
2021/11/16 02:24:24;;;;;;;45.65;30.27;;;12.60;65.80;;;;;;4848956;29;20498;-69
2021/11/16 02:26:50;;;;;;;42.70;29.20;;;12.60;65.80;;;;;;4864389;29;20132;-70
2021/11/16 02:29:16;;;;;;;44.97;29.38;;;12.60;65.40;;;;;;4865001;29;20057;-69
2021/11/16 02:31:45;;;;;;;44.75;28.17;;;12.50;65.30;;;;;;4847903;29;20130;-70
2021/11/16 02:34:12;;;;;;;43.20;28.67;;;12.50;65.40;;;;;;4864471;29;20057;-70
2021/11/16 02:36:41;;;;;;;44.67;28.45;;;12.50;65.20;;;;;;4864742;29;20053;-70
2021/11/16 02:39:08;;;;;;;42.67;27.75;;;12.50;65.40;;;;;;4864247;29;20136;-70
2021/11/16 02:41:36;;;;;;;44.35;27.63;;;12.50;65.70;;;;;;4848128;29;20171;-70
2021/11/16 02:44:05;;;;;;;40.65;27.13;;;12.50;65.90;;;;;;4848016;29;20141;-69
2021/11/16 02:46:32;;;;;;;42.08;27.85;;;12.60;65.80;;;;;;4832798;29;20124;-69
2021/11/16 02:48:58;;;;;;;40.75;26.83;;;12.60;65.80;;;;;;4863928;29;20045;-69
2021/11/16 02:51:24;;;;;;;43.85;29.00;;;12.60;66.60;;;;;;4847876;29;20053;-70
2021/11/16 02:53:50;;;;;;;42.75;27.58;;;12.60;66.00;;;;;;4847911;29;20053;-70
2021/11/16 02:56:16;;;;;;;44.05;27.20;;;12.60;66.10;;;;;;4864150;29;20049;-69
2021/11/16 02:58:42;;;;;;;41.33;27.88;;;12.60;65.70;;;;;;4847636;29;20067;-69
2021/11/16 03:01:15;;;;;;;38.78;26.65;;;12.50;65.80;;;;;;4863762;29;20428;-70
2021/11/16 03:03:42;;;;;;;45.30;27.50;;;12.50;66.10;;;;;;4863316;29;20434;-71
2021/11/16 03:06:08;;;;;;;45.85;29.17;;;12.50;66.10;;;;;;4863918;29;20049;-69
2021/11/16 03:08:35;;;;;;;42.03;27.27;;;12.50;66.80;;;;;;4864200;29;20060;-70
2021/11/16 03:11:06;;;;;;;42.53;27.58;;;12.50;66.40;;;;;;4863787;29;20116;-71
2021/11/16 03:13:36;;;;;;;43.80;27.98;;;12.50;65.70;;;;;;4847325;29;20053;-70
2021/11/16 03:16:04;;;;;;;41.53;27.42;;;12.50;65.90;;;;;;4863404;29;20060;-70
2021/11/16 03:18:30;;;;;;;43.67;27.30;;;12.40;65.70;;;;;;4863384;29;20057;-70
2021/11/16 03:20:56;;;;;;;40.28;26.23;;;12.40;65.60;;;;;;4863169;29;20045;-71
2021/11/16 03:23:23;;;;;;;40.40;26.35;;;12.40;65.70;;;;;;4863575;29;20133;-70
2021/11/16 03:26:01;;;;;;;41.65;27.05;;;12.40;65.90;;;;;;4847061;29;20492;-70
2021/11/16 03:28:30;;;;;;;40.25;26.38;;;12.40;65.90;;;;;;4847371;29;20127;-70
2021/11/16 03:31:07;;;;;;;40.83;26.83;;;12.40;66.10;;;;;;4863486;29;20053;-70
2021/11/16 03:33:33;;;;;;;42.67;28.10;;;12.40;65.90;;;;;;4863179;29;20046;-70
2021/11/16 03:35:59;;;;;;;43.78;27.45;;;12.30;65.90;;;;;;4847774;29;20457;-71
2021/11/16 03:38:26;;;;;;;40.35;26.13;;;12.30;65.90;;;;;;4847224;29;20089;-70
2021/11/16 03:40:53;;;;;;;43.17;26.55;;;12.40;66.00;;;;;;4847463;29;20053;-70
2021/11/16 03:43:20;;;;;;;41.60;27.70;;;12.40;65.70;;;;;;4846322;29;20072;-70
2021/11/16 03:45:47;;;;;;;41.42;27.45;;;12.40;65.70;;;;;;4863215;29;20068;-70
2021/11/16 03:48:13;;;;;;;42.17;25.75;;;12.40;65.80;;;;;;4863543;29;20354;-70
2021/11/16 03:50:43;;;;;;;41.03;25.38;;;12.40;66.30;;;;;;4863259;29;20509;-70
2021/11/16 03:53:10;;;;;;;43.75;27.13;;;12.40;66.10;;;;;;4863235;29;20054;-70
2021/11/16 03:55:41;;;;;;;42.15;26.23;;;12.40;66.10;;;;;;4863300;29;20132;-70
2021/11/16 03:58:09;;;;;;;44.83;27.15;;;12.40;65.80;;;;;;4859224;29;20045;-70
2021/11/16 04:00:41;;;;;;;39.85;25.60;;;12.40;65.60;;;;;;4862929;29;20046;-71
2021/11/16 04:03:08;;;;;;;45.83;27.38;;;12.40;65.80;;;;;;4862640;29;20049;-70
2021/11/16 04:05:34;;;;;;;42.95;26.70;;;12.40;65.90;;;;;;4846508;29;20050;-70
2021/11/16 04:08:00;;;;;;;44.33;26.92;;;12.40;65.60;;;;;;4863083;29;20064;-70
2021/11/16 04:10:26;;;;;;;41.42;26.95;;;12.40;65.70;;;;;;4846848;29;20057;-70
2021/11/16 04:12:53;;;;;;;43.50;27.75;;;12.40;65.70;;;;;;4862668;29;20050;-70
2021/11/16 04:15:22;;;;;;;45.95;28.30;;;12.40;65.70;;;;;;4863009;29;20053;-70
2021/11/16 04:17:50;;;;;;;42.80;25.88;;;12.40;65.60;;;;;;4863408;29;20060;-70
2021/11/16 04:20:28;;;;;;;42.58;26.00;;;12.40;66.00;;;;;;4846371;29;20130;-70
2021/11/16 04:22:56;;;;;;;41.90;26.15;;;12.40;65.70;;;;;;4846604;29;20477;-70
2021/11/16 04:25:22;;;;;;;40.78;26.55;;;12.40;65.80;;;;;;4846682;29;20424;-70
2021/11/16 04:27:48;;;;;;;44.08;27.67;;;12.40;66.00;;;;;;4863020;29;20072;-69
2021/11/16 04:30:18;;;;;;;43.83;26.00;;;12.30;65.20;;;;;;4862802;29;20053;-70
2021/11/16 04:32:43;;;;;;;43.20;25.67;;;12.30;65.80;;;;;;4862242;29;20102;-70
2021/11/16 04:35:11;;;;;;;43.47;26.98;;;12.30;65.80;;;;;;4846090;29;20061;-70
2021/11/16 04:37:41;;;;;;;40.80;25.73;;;12.40;65.80;;;;;;4831029;29;20061;-69
2021/11/16 04:40:10;;;;;;;44.53;27.45;;;12.30;65.40;;;;;;4862579;29;20137;-70
2021/11/16 04:42:37;;;;;;;41.67;26.58;;;12.30;65.40;;;;;;4862238;29;20097;-70
2021/11/16 04:45:07;;;;;;;41.17;26.20;;;12.30;65.80;;;;;;4863488;29;20123;-70
2021/11/16 04:47:42;;;;;;;43.45;26.10;;;12.30;66.00;;;;;;4850016;29;20457;-70
2021/11/16 04:50:28;;;;;;;39.75;25.05;;;12.30;65.60;;;;;;4866270;29;20061;-69
2021/11/16 04:53:13;;;;;;;45.60;27.77;;;12.20;65.60;;;;;;4849776;29;20205;-69
2021/11/16 04:55:50;;;;;;;38.60;25.90;;;12.30;65.40;;;;;;4849949;29;20064;-69
2021/11/16 05:03:57;;;;;;;40.33;25.20;;;12.20;65.20;;;;;;4849665;29;20049;-72
2021/11/16 05:06:24;;;;;;;45.47;26.67;;;12.40;66.90;;;;;;4866085;29;20054;-73
2021/11/16 05:08:51;;;;;;;44.15;25.70;;;12.70;66.90;;;;;;4865653;29;20411;-70
2021/11/16 05:11:19;;;;;;;41.35;23.98;;;13.00;66.90;;;;;;4850328;29;20116;-69
2021/11/16 05:13:47;;;;;;;41.00;23.98;;;13.20;66.70;;;;;;4865656;29;20384;-69
2021/11/16 05:16:17;;;;;;;42.58;23.83;;;13.40;66.60;;;;;;4866051;29;20049;-69
2021/11/16 05:18:43;;;;;;;37.53;21.38;;;13.70;66.50;;;;;;4865842;29;20058;-72
2021/11/16 05:21:12;;;;;;;41.15;20.83;;;13.90;66.00;;;;;;4849100;29;20054;-70
2021/11/16 05:23:44;;;;;;;39.72;20.52;;;14.30;65.70;;;;;;4865451;29;20061;-75
2021/11/16 05:26:10;;;;;;;37.88;19.80;;;14.60;65.30;;;;;;4865607;29;20365;-76
2021/11/16 05:28:36;;;;;;;34.53;18.17;;;14.90;65.00;;;;;;4865099;29;20449;-73
2021/11/16 05:31:02;;;;;;;31.58;18.25;;;15.20;64.60;;;;;;4848871;29;20094;-73
2021/11/16 05:33:28;;;;;;;32.53;18.80;;;15.40;64.40;;;;;;4848842;29;20149;-75
2021/11/16 05:35:58;;;;;;;31.20;19.40;;;15.60;64.50;;;;;;4845660;29;20065;-73
2021/11/16 05:38:29;;;;;;;35.88;19.00;;;15.70;64.50;;;;;;4846832;29;20058;-74
2021/11/16 05:40:55;;;;;;;30.10;18.30;;;15.90;64.60;;;;;;4830723;29;20052;-75
2021/11/16 05:43:27;;;;;;;33.10;18.27;;;16.00;64.50;;;;;;4845884;29;20053;-81
2021/11/16 05:45:55;;;;;;;27.30;16.92;;;16.10;64.30;;;;;;4840505;29;20057;-74
2021/11/16 05:48:23;;;;;;;28.13;16.63;;;16.20;64.40;;;;;;4857676;29;20116;-75
2021/11/16 05:50:50;;;;;;;30.33;16.75;;;16.30;64.60;;;;;;4849177;29;20064;-75
2021/11/16 05:53:16;;;;;;;33.53;17.27;;;16.30;64.80;;;;;;4864997;29;20114;-74
2021/11/16 05:55:46;;;;;;;28.73;16.42;;;16.40;64.80;;;;;;4848589;29;20053;-77
2021/11/16 05:58:19;;;;;;;28.48;16.73;;;16.50;64.90;;;;;;4848109;29;20051;-74
2021/11/16 06:00:47;;;;;;;25.70;15.68;;;16.60;64.80;;;;;;4865599;29;20053;-76
2021/11/16 06:03:12;;;;;;;33.35;16.63;;;16.70;64.40;;;;;;4848305;29;20085;-75
2021/11/16 06:05:39;;;;;;;25.13;16.15;;;16.80;63.70;;;;;;4864671;29;20436;-74
2021/11/16 06:08:06;;;;;;;25.30;15.82;;;16.90;63.90;;;;;;4865149;29;20072;-76
2021/11/16 06:10:33;;;;;;;26.63;15.77;;;17.00;63.60;;;;;;4864901;29;20055;-74
2021/11/16 06:12:59;;;;;;;25.35;14.98;;;17.10;63.50;;;;;;4865014;29;20389;-76
2021/11/16 06:15:25;;;;;;;27.63;15.65;;;17.20;63.20;;;;;;4864369;29;20064;-75
2021/11/16 06:17:51;;;;;;;26.63;14.63;;;17.30;62.70;;;;;;4865096;29;20129;-74
2021/11/16 06:20:20;;;;;;;24.00;15.00;;;17.40;62.80;;;;;;4848695;29;20365;-76
2021/11/16 06:22:46;;;;;;;27.00;14.90;;;17.40;62.60;;;;;;4848532;29;20515;-72
2021/11/16 06:25:12;;;;;;;25.00;14.90;;;17.40;62.50;;;;;;4848299;29;20045;-72
2021/11/16 06:27:38;;;;;;;26.40;16.17;;;17.50;62.20;;;;;;4865090;29;20537;-74
2021/11/16 06:30:07;;;;;;;27.20;15.25;;;16.90;60.90;;;;;;4864851;29;20097;-71
2021/11/16 06:32:32;;;;;;;26.38;14.55;;;17.10;62.20;;;;;;4863644;29;20349;-72
2021/11/16 06:34:58;;;;;;;29.27;15.57;;;17.30;62.20;;;;;;4864668;29;20049;-70
2021/11/16 06:37:24;;;;;;;30.15;15.93;;;17.40;62.00;;;;;;4847704;29;20061;-72
2021/11/16 06:39:50;;;;;;;30.05;15.90;;;17.50;61.80;;;;;;4864028;29;20053;-71
2021/11/16 06:42:16;;;;;;;29.92;14.50;;;17.60;61.60;;;;;;4847267;29;20061;-72
2021/11/16 06:44:42;;;;;;;28.50;15.07;;;17.80;61.60;;;;;;4863877;29;20064;-70
2021/11/16 06:47:13;;;;;;;26.85;14.60;;;17.90;61.70;;;;;;4864037;29;20445;-72
2021/11/16 06:49:48;;;;;;;26.63;14.93;;;17.90;61.40;;;;;;4864409;29;20053;-71
2021/11/16 06:52:15;;;;;;;27.15;14.05;;;18.00;62.00;;;;;;4864414;29;20125;-71
2021/11/16 06:54:41;;;;;;;29.63;14.85;;;18.00;61.30;;;;;;4864142;29;20050;-72
2021/11/16 06:57:07;;;;;;;30.05;16.00;;;18.00;61.90;;;;;;4863751;29;20041;-73
2021/11/16 06:59:33;;;;;;;28.55;15.77;;;18.10;60.80;;;;;;4863794;29;20061;-72
2021/11/16 07:01:58;;;;;;;33.03;15.38;;;18.20;60.80;;;;;;4848136;29;20411;-72
2021/11/16 07:04:34;;;;;;;30.58;15.30;;;18.20;60.80;;;;;;4864232;29;20084;-74
2021/11/16 07:07:00;;;;;;;32.42;14.95;;;18.30;61.00;;;;;;4859181;29;20053;-74
2021/11/16 07:09:32;;;;;;;33.22;15.10;;;18.30;60.90;;;;;;4845279;29;20584;-76
2021/11/16 07:11:58;;;;;;;30.25;18.10;;;18.40;61.70;;;;;;4840370;29;20053;-72
2021/11/16 07:14:36;;;;;;;30.50;17.38;;;18.40;60.60;;;;;;4847354;29;20059;-71
2021/11/16 07:17:07;;;;;;;31.38;18.15;;;18.30;58.90;;;;;;4863638;29;20061;-73
2021/11/16 07:19:42;;;;;;;32.22;17.45;;;18.30;58.80;;;;;;4863205;29;20117;-72
2021/11/16 07:22:23;;;;;;;31.40;18.90;;;18.20;58.70;;;;;;4863503;29;20380;-72
2021/11/16 07:24:56;;;;;;;32.90;17.55;;;18.10;58.60;;;;;;4863482;29;20428;-72
2021/11/16 07:27:41;;;;;;;29.02;17.05;;;18.00;59.20;;;;;;4847538;29;20356;-72
2021/11/16 07:30:10;;;;;;;26.90;16.60;;;18.00;59.00;;;;;;4863591;29;20053;-72
2021/11/16 07:32:48;;;;;;;22.52;15.45;;;17.90;59.90;;;;;;4853369;29;20416;-78
2021/11/16 07:35:15;;;;;;;29.27;17.15;;;17.80;60.20;;;;;;4862522;29;20141;-75
2021/11/16 07:37:47;;;;;;;28.65;17.90;;;17.80;60.50;;;;;;4860193;29;20104;-78
2021/11/16 07:40:17;;;;;;;37.05;17.55;;;17.70;60.20;;;;;;4836722;29;20058;-78
2021/11/16 07:42:59;;;;;;;31.08;17.42;;;17.70;60.10;;;;;;4838997;29;20069;-78
2021/11/16 07:45:35;;;;;;;29.17;17.55;;;17.70;59.70;;;;;;4862757;29;20057;-77
2021/11/16 07:48:25;;;;;;;32.90;20.00;;;17.70;59.30;;;;;;4845805;29;20049;-75
2021/11/16 07:51:03;;;;;;;36.15;19.48;;;17.50;59.10;;;;;;4862617;29;20114;-75
2021/11/16 07:53:37;;;;;;;33.45;19.23;;;17.40;59.30;;;;;;4863055;29;20056;-74
2021/11/16 07:56:09;;;;;;;29.98;18.65;;;17.30;59.40;;;;;;4862934;29;20068;-72
2021/11/16 07:58:36;;;;;;;32.78;18.05;;;17.20;59.80;;;;;;4861168;29;20056;-73
2021/11/16 08:06:54;;;;;;;33.58;18.45;;;16.80;61.30;;;;;;4863229;29;20053;-71
2021/11/16 08:14:55;;;;;;;;;;;17.00;62.90;;;;;;4863137;29;20061;-71
2021/11/16 08:17:23;;;;;;;30.70;18.70;;;17.00;63.10;;;;;;4863341;29;20301;-71
2021/11/16 08:19:59;;;;;;;29.38;17.73;;;17.00;63.40;;;;;;4862101;29;20456;-71
2021/11/16 08:22:25;;;;;;;29.35;17.42;;;16.90;63.50;;;;;;4862584;29;20327;-71
2021/11/16 08:24:53;;;;;;;27.90;18.48;;;16.90;63.70;;;;;;4860309;29;20425;-71
2021/11/16 08:27:33;;;;;;;26.38;17.73;;;16.90;64.00;;;;;;4849052;29;20478;-73
2021/11/16 08:30:05;;;;;;;31.50;17.45;;;16.90;64.60;;;;;;4844339;29;20060;-71
2021/11/16 08:32:38;;;;;;;30.40;17.38;;;16.80;64.70;;;;;;4858254;29;20484;-71
2021/11/16 08:35:10;;;;;;;29.25;17.23;;;16.80;65.10;;;;;;4846331;29;20054;-72
2021/11/16 08:37:38;;;;;;;29.58;18.63;;;16.80;65.50;;;;;;4846955;29;20398;-72
2021/11/16 08:40:09;;;;;;;28.63;18.23;;;16.70;65.50;;;;;;4862530;29;20061;-73
2021/11/16 08:42:42;;;;;;;27.00;17.33;;;16.70;66.10;;;;;;4862963;29;20061;-73
2021/11/16 08:45:12;;;;;;;26.42;17.92;;;16.70;66.50;;;;;;4862499;29;20050;-72
2021/11/16 08:47:43;;;;;;;28.63;17.77;;;16.70;66.10;;;;;;4862481;29;20373;-71
2021/11/16 08:50:27;;;;;;;29.98;17.42;;;16.60;65.70;;;;;;4862436;29;20054;-74
2021/11/16 08:52:53;;;;;;;24.52;17.92;;;16.70;66.20;;;;;;4862222;29;20053;-72
2021/11/16 08:55:20;;;;;;;32.65;19.15;;;16.60;66.30;;;;;;4862450;29;20045;-73
2021/11/16 08:57:49;;;;;;;28.85;18.92;;;16.60;65.60;;;;;;4862684;29;20057;-73
2021/11/16 09:00:24;;;;;;;30.10;18.67;;;16.60;65.70;;;;;;4845875;29;20046;-72
2021/11/16 09:02:51;;;;;;;34.47;18.25;;;16.60;65.30;;;;;;4846045;29;20133;-73
2021/11/16 09:05:19;;;;;;;28.63;18.63;;;16.60;65.70;;;;;;4862166;29;20049;-73
2021/11/16 09:07:55;;;;;;;29.40;17.85;;;16.60;65.70;;;;;;4862450;29;20092;-71
2021/11/16 09:10:29;;;;;;;30.48;18.05;;;16.60;66.10;;;;;;4862296;29;20072;-74
2021/11/16 09:12:56;;;;;;;28.67;17.38;;;16.60;66.00;;;;;;4861956;29;20069;-72
2021/11/16 09:15:41;;;;;;;29.23;18.02;;;16.60;66.30;;;;;;4846032;29;20365;-72
2021/11/16 09:18:25;;;;;;;30.55;17.50;;;16.60;66.30;;;;;;4862021;29;20446;-72
2021/11/16 09:21:05;;;;;;;;;;;16.60;66.40;;;;;;4862744;29;20210;-73
2021/11/16 09:23:41;;;;;;;31.67;18.08;;;16.50;66.90;;;;;;4862293;29;19924;-73
2021/11/16 09:26:19;;;;;;;32.78;19.35;;;16.60;65.70;;;;;;4862432;29;20049;-73
2021/11/16 09:28:51;;;;;;;34.58;18.65;;;16.50;65.10;;;;;;4862203;29;20141;-73
2021/11/16 09:31:27;;;;;;;33.10;17.80;;;16.50;65.30;;;;;;4840483;29;20081;-72
2021/11/16 09:33:57;;;;;;;28.10;16.70;;;16.60;65.50;;;;;;4833852;29;20058;-72
2021/11/16 09:36:43;;;;;;;23.77;15.93;;;16.50;64.70;;;;;;4847406;29;20086;-72
2021/11/16 09:39:17;;;;;;;27.10;15.60;;;16.70;64.70;;;;;;4865340;29;20438;-76
2021/11/16 09:41:50;;;;;;;26.63;15.85;;;16.80;64.10;;;;;;4864900;29;20342;-77
2021/11/16 09:44:24;;;;;;;31.27;15.73;;;17.00;63.10;;;;;;4865054;29;20049;-76
2021/11/16 09:47:01;;;;;;;28.20;16.80;;;17.20;62.20;;;;;;4848395;29;20495;-76
2021/11/16 09:49:40;;;;;;;28.08;16.38;;;17.40;61.50;;;;;;4864948;29;20046;-75
2021/11/16 09:52:46;;;;;;;28.80;16.73;;;17.50;60.50;;;;;;4865072;29;20438;-77
2021/11/16 09:55:13;;;;;;;30.55;18.17;;;17.60;59.00;;;;;;4849048;29;20369;-76
2021/11/16 09:57:47;;;;;;;26.70;15.98;;;17.60;59.10;;;;;;4864993;29;20119;-75
2021/11/16 10:00:21;;;;;;;;;;;17.70;59.70;;;;;;4865003;29;20072;-75
2021/11/16 10:02:50;;;;;;;28.05;14.77;;;17.70;59.70;;;;;;4864746;29;19943;-72
2021/11/16 10:05:20;;;;;;;25.05;14.85;;;17.80;60.10;;;;;;4862936;29;20088;-72
2021/11/16 10:07:57;;;;;;;25.10;14.65;;;17.90;60.40;;;;;;4843184;29;20068;-75
2021/11/16 10:10:26;;;;;;;22.25;13.35;;;18.00;60.30;;;;;;4854445;29;20140;-78
2021/11/16 10:12:57;;;;;;;24.38;13.88;;;18.00;60.90;;;;;;4830200;29;20054;-77
2021/11/16 10:15:29;;;;;;;27.05;13.70;;;18.10;60.40;;;;;;4846405;29;20061;-79
2021/11/16 10:17:56;;;;;;;23.88;13.65;;;18.10;60.20;;;;;;4854924;29;20057;-83
2021/11/16 10:20:28;;;;;;;23.15;13.93;;;18.10;60.90;;;;;;4864725;29;20410;-72
2021/11/16 10:22:58;;;;;;;22.90;13.77;;;18.10;60.40;;;;;;4840351;29;20056;-76
2021/11/16 10:25:27;;;;;;;23.85;13.93;;;18.10;61.10;;;;;;4854441;29;20038;-76
2021/11/16 10:27:55;;;;;;;20.02;12.30;;;18.10;61.20;;;;;;4856227;29;20436;-75
2021/11/16 10:30:24;;;;;;;21.75;13.02;;;18.20;61.10;;;;;;4858341;29;20107;-83
2021/11/16 10:33:11;;;;;;;26.48;12.57;;;18.10;61.20;;;;;;4847979;29;20053;-77
2021/11/16 10:35:53;;;;;;;20.80;12.18;;;18.10;61.60;;;;;;4846112;29;20110;-74
2021/11/16 10:38:25;;;;;;;21.15;12.27;;;18.10;61.50;;;;;;4862645;29;20057;-73
2021/11/16 10:40:55;;;;;;;22.25;12.30;;;18.20;61.20;;;;;;4847508;29;20057;-80
2021/11/16 10:43:22;;;;;;;24.00;13.80;;;18.20;61.40;;;;;;4861431;29;20068;-77
2021/11/16 10:45:50;;;;;;;24.42;13.15;;;17.90;58.70;;;;;;4845883;29;20481;-76
2021/11/16 10:48:19;;;;;;;24.02;13.88;;;18.00;61.60;;;;;;4847756;29;20210;-75
2021/11/16 10:50:48;;;;;;;22.52;12.52;;;18.00;61.80;;;;;;4844393;29;20126;-73
2021/11/16 10:53:15;;;;;;;23.77;12.20;;;18.00;61.00;;;;;;4853417;29;20469;-78
2021/11/16 10:55:46;;;;;;;20.40;12.13;;;18.10;60.50;;;;;;4864018;29;20173;-76
2021/11/16 10:58:15;;;;;;;22.55;12.93;;;18.10;60.20;;;;;;4848505;29;20136;-77
2021/11/16 11:00:59;;;;;;;22.05;11.57;;;18.10;60.20;;;;;;4863936;29;20053;-79
2021/11/16 11:03:27;;;;;;;20.48;11.57;;;18.10;60.20;;;;;;4863313;29;20057;-77
2021/11/16 11:06:08;;;;;;;20.67;12.25;;;18.10;60.30;;;;;;4863481;29;20041;-77
2021/11/16 11:08:35;;;;;;;19.75;12.25;;;18.20;60.20;;;;;;4847033;29;20113;-78
2021/11/16 11:11:03;;;;;;;18.17;11.40;;;18.20;60.10;;;;;;4863831;29;20060;-78
2021/11/16 11:13:30;;;;;;;19.27;11.48;;;18.30;59.90;;;;;;4847251;29;20477;-79
2021/11/16 11:15:57;;;;;;;17.48;10.88;;;18.30;59.90;;;;;;4848092;29;20053;-78
2021/11/16 11:18:33;;;;;;;18.65;10.63;;;18.30;59.80;;;;;;4842994;29;20057;-77
2021/11/16 11:21:02;;;;;;;21.45;12.52;;;18.30;59.80;;;;;;4861984;29;20045;-71
2021/11/16 11:23:32;;;;;;;24.35;13.13;;;18.30;59.10;;;;;;4844871;29;20050;-73
2021/11/16 11:26:30;;;;;;;26.48;13.23;;;18.30;58.20;;;;;;4828649;29;20050;-73
2021/11/16 11:31:39;;;;;;;24.92;12.55;;;18.30;58.90;;;;;;4862309;29;20049;-76
2021/11/16 11:34:04;;;;;;;26.25;12.65;;;18.20;59.20;;;;;;4863409;29;20120;-73
2021/11/16 11:36:30;;;;;;;25.35;12.32;;;18.20;59.50;;;;;;4863359;29;20093;-72
2021/11/16 11:38:56;;;;;;;27.05;12.35;;;18.20;59.90;;;;;;4847658;29;20459;-73
2021/11/16 11:41:25;;;;;;;23.27;12.48;;;18.10;60.00;;;;;;4863244;29;20073;-71
2021/11/16 11:44:08;;;;;;;25.75;12.50;;;18.00;60.10;;;;;;4846785;29;20129;-74
2021/11/16 11:46:49;;;;;;;25.60;10.77;;;17.90;56.80;;;;;;4846679;29;20059;-75
2021/11/16 11:49:15;;;;;;;22.85;11.50;;;16.80;61.10;;;;;;4863293;29;20049;-74
2021/11/16 11:51:41;;;;;;;28.88;12.73;;;17.00;62.50;;;;;;4862590;29;20080;-75
2021/11/16 11:54:07;;;;;;;24.13;11.35;;;17.10;62.60;;;;;;4846123;29;20064;-73
2021/11/16 11:56:35;;;;;;;22.63;12.32;;;17.20;62.50;;;;;;4846463;29;20057;-75
2021/11/16 11:59:02;;;;;;;19.60;12.10;;;17.20;62.30;;;;;;4846978;29;20156;-75
2021/11/16 12:01:28;;;;;;;25.45;12.55;;;17.30;62.20;;;;;;4846331;29;20053;-73
2021/11/16 12:03:55;;;;;;;22.92;11.43;;;17.30;62.10;;;;;;4846406;29;20049;-74
2021/11/16 12:06:26;;;;;;;21.00;11.60;;;17.30;62.00;;;;;;4846403;29;20140;-74
2021/11/16 12:08:53;;;;;;;21.08;10.30;;;17.30;62.00;;;;;;4863429;29;20061;-76
2021/11/16 12:11:20;;;;;;;20.35;11.43;;;17.30;62.00;;;;;;4846827;29;20077;-74
2021/11/16 12:13:48;;;;;;;21.25;12.63;;;17.30;62.00;;;;;;4862406;29;20053;-74
2021/11/16 12:16:21;;;;;;;19.80;11.43;;;17.20;62.00;;;;;;4846763;29;20365;-75
2021/11/16 12:18:49;;;;;;;22.65;13.25;;;17.20;62.00;;;;;;4862680;29;20064;-74
2021/11/16 12:21:28;;;;;;;19.05;12.15;;;17.20;62.10;;;;;;4862470;29;20064;-73
2021/11/16 12:23:59;;;;;;;19.35;10.95;;;17.20;61.90;;;;;;4846065;29;20084;-74
2021/11/16 12:26:28;;;;;;;19.60;11.13;;;17.10;62.20;;;;;;4846430;29;20069;-74
2021/11/16 12:29:17;;;;;;;19.60;12.10;;;17.10;62.20;;;;;;4846657;29;20057;-76
2021/11/16 12:31:46;;;;;;;21.10;11.15;;;17.10;62.00;;;;;;4846730;29;20373;-74
2021/11/16 12:34:29;;;;;;;17.05;11.02;;;17.00;62.40;;;;;;4846368;29;20128;-73
2021/11/16 12:36:55;;;;;;;18.98;12.75;;;17.00;62.50;;;;;;4862564;29;20065;-74
2021/11/16 12:39:24;;;;;;;18.45;10.93;;;17.00;62.70;;;;;;4846671;29;20063;-73
2021/11/16 12:41:54;;;;;;;18.95;11.32;;;17.00;62.70;;;;;;4862319;29;20061;-74
2021/11/16 12:44:32;;;;;;;19.30;11.52;;;17.00;62.70;;;;;;4846571;29;20488;-74
2021/11/16 12:47:07;;;;;;;20.63;11.18;;;16.90;62.50;;;;;;4846484;29;20122;-74
2021/11/16 12:49:44;;;;;;;18.25;10.80;;;16.90;62.70;;;;;;4862400;29;20053;-74
2021/11/16 12:52:19;;;;;;;20.17;11.75;;;16.90;62.70;;;;;;4862332;29;20050;-73
2021/11/16 12:54:45;;;;;;;21.50;12.98;;;16.90;62.60;;;;;;4846558;29;20089;-74
2021/11/16 12:57:21;;;;;;;20.33;12.00;;;16.80;62.50;;;;;;4862508;29;20057;-75
2021/11/16 12:59:46;;;;;;;19.23;11.43;;;16.80;62.30;;;;;;4862590;29;20136;-74
2021/11/16 13:02:34;;;;;;;19.67;12.38;;;16.90;62.40;;;;;;4862426;29;20136;-73